createdAt,value
2018-06-12T00:01:32.636Z,100324.90
2018-06-12T00:04:00.644Z,100316.77
2018-06-12T00:06:28.697Z,100313.27
2018-06-12T00:08:56.700Z,100312.20
2018-06-12T00:11:24.724Z,100313.16
2018-06-12T00:13:52.718Z,100312.39
2018-06-12T00:16:20.728Z,100303.73
2018-06-12T00:18:48.768Z,100309.05
2018-06-12T00:21:16.844Z,100302.90
2018-06-12T00:23:44.864Z,100299.83
2018-06-12T00:26:12.888Z,100290.56
2018-06-12T00:28:41.061Z,100292.64
2018-06-12T00:31:09.120Z,100293.63
2018-06-12T00:33:37.160Z,100289.95
2018-06-12T00:36:05.164Z,100285.67
2018-06-12T00:38:33.188Z,100290.16
2018-06-12T00:41:01.240Z,100291.11
2018-06-12T00:43:29.284Z,100290.06
2018-06-12T00:45:58.317Z,100285.91
2018-06-12T00:48:27.376Z,100295.21
2018-06-12T00:50:55.384Z,100296.31
2018-06-12T00:53:23.445Z,100299.55
2018-06-12T00:55:51.408Z,100305.94
2018-06-12T00:58:19.431Z,100310.98
2018-06-12T01:00:47.454Z,100306.91
2018-06-12T01:03:15.481Z,100304.03
2018-06-12T01:05:43.540Z,100306.64
2018-06-12T01:08:11.588Z,100311.78
2018-06-12T01:10:39.568Z,100310.63
2018-06-12T01:13:07.561Z,100310.51
2018-06-12T01:15:35.562Z,100312.84
2018-06-12T01:18:03.588Z,100305.50
2018-06-12T01:20:31.896Z,100305.39
2018-06-12T01:22:59.933Z,100311.50
2018-06-12T01:25:28.005Z,100305.23
2018-06-12T01:27:56.041Z,100309.73
2018-06-12T01:30:24.071Z,100314.44
2018-06-12T01:32:52.073Z,100309.01
2018-06-12T01:35:20.123Z,100315.34
2018-06-12T01:37:48.140Z,100316.32
2018-06-12T01:40:16.158Z,100317.55
2018-06-12T01:42:44.156Z,100318.87
2018-06-12T01:45:12.145Z,100319.33
2018-06-12T01:47:40.164Z,100317.06
2018-06-12T01:50:08.176Z,100326.29
2018-06-12T01:52:36.183Z,100317.63
2018-06-12T01:55:04.185Z,100320.26
2018-06-12T01:57:32.197Z,100319.02
2018-06-12T02:00:00.168Z,100314.21
2018-06-12T02:02:28.182Z,100316.41
2018-06-12T02:04:56.185Z,100318.22
2018-06-12T02:07:24.217Z,100320.62
2018-06-12T02:09:52.209Z,100316.69
2018-06-12T02:12:20.200Z,100312.11
2018-06-12T02:14:48.202Z,100312.27
2018-06-12T02:17:16.234Z,100313.56
2018-06-12T02:19:44.229Z,100302.42
2018-06-12T02:22:12.292Z,100300.56
2018-06-12T02:24:40.330Z,100294.95
2018-06-12T02:27:09.036Z,100290.47
2018-06-12T02:29:37.092Z,100291.80
2018-06-12T02:32:05.320Z,100298.45
2018-06-12T02:34:33.344Z,100289.95
2018-06-12T02:37:01.366Z,100285.33
2018-06-12T02:39:29.380Z,100284.64
2018-06-12T02:41:57.384Z,100287.86
2018-06-12T02:44:25.410Z,100289.84
2018-06-12T02:46:53.456Z,100289.40
2018-06-12T02:49:21.457Z,100292.56
2018-06-12T02:51:49.453Z,100295.03
2018-06-12T02:54:17.463Z,100298.66
2018-06-12T02:56:45.468Z,100298.60
2018-06-12T02:59:13.492Z,100302.97
2018-06-12T03:01:41.528Z,100301.39
2018-06-12T03:04:09.545Z,100304.69
2018-06-12T03:06:37.537Z,100298.45
2018-06-12T03:09:08.340Z,100301.83
2018-06-12T03:11:36.390Z,100308.14
2018-06-12T03:14:04.388Z,100305.22
2018-06-12T03:16:32.415Z,100313.77
2018-06-12T03:19:00.924Z,100308.16
2018-06-12T03:21:28.912Z,100315.16
2018-06-12T03:23:56.921Z,100314.95
2018-06-12T03:26:24.921Z,100312.86
2018-06-12T03:28:52.977Z,100309.83
2018-06-12T03:31:21.025Z,100313.62
2018-06-12T03:33:49.038Z,100314.70
2018-06-12T03:36:17.040Z,100316.31
2018-06-12T03:38:45.089Z,100304.78
2018-06-12T03:41:13.101Z,100298.75
2018-06-12T03:43:41.144Z,100303.58
2018-06-12T03:46:09.157Z,100316.98
2018-06-12T03:48:37.252Z,100309.70
2018-06-12T03:51:05.339Z,100314.83
2018-06-12T03:53:33.418Z,100313.83
2018-06-12T03:56:01.454Z,100312.08
2018-06-12T03:58:29.473Z,100317.41
2018-06-12T04:00:58.496Z,100316.37
2018-06-12T04:03:26.521Z,100317.36
2018-06-12T04:05:54.534Z,100308.48
2018-06-12T04:08:22.616Z,100304.78
2018-06-12T04:10:50.598Z,100301.41
2018-06-12T04:13:18.576Z,100309.36
2018-06-12T04:15:46.573Z,100312.03
2018-06-12T04:18:14.633Z,100318.23
2018-06-12T04:20:42.680Z,100320.98
2018-06-12T04:23:10.660Z,100317.20
2018-06-12T04:25:38.677Z,100321.19
2018-06-12T04:28:06.643Z,100321.31
2018-06-12T04:30:34.643Z,100317.52
2018-06-12T04:33:02.642Z,100313.30
2018-06-12T04:35:30.664Z,100311.27
2018-06-12T04:37:58.692Z,100310.71
2018-06-12T04:40:26.686Z,100310.22
2018-06-12T04:42:54.681Z,100313.09
2018-06-12T04:45:22.654Z,100314.16
2018-06-12T04:47:50.667Z,100317.73
2018-06-12T04:50:18.676Z,100321.69
2018-06-12T04:52:46.724Z,100316.75
2018-06-12T04:55:14.749Z,100314.47
2018-06-12T04:57:42.792Z,100324.73
2018-06-12T05:00:10.828Z,100319.72
2018-06-12T05:02:38.842Z,100317.31
2018-06-12T05:05:06.840Z,100315.93
2018-06-12T05:07:34.830Z,100313.98
2018-06-12T05:10:02.900Z,100314.83
2018-06-12T05:12:30.985Z,100311.21
2018-06-12T05:14:59.004Z,100313.59
2018-06-12T05:17:27.026Z,100321.17
2018-06-12T05:19:55.027Z,100313.88
2018-06-12T05:22:23.053Z,100309.34
2018-06-12T05:24:51.133Z,100313.17
2018-06-12T05:27:19.121Z,100318.51
2018-06-12T05:29:47.172Z,100318.37
2018-06-12T05:32:15.163Z,100312.96
2018-06-12T05:34:43.209Z,100313.48
2018-06-12T05:37:11.217Z,100311.45
2018-06-12T05:39:39.313Z,100311.77
2018-06-12T05:42:07.329Z,100315.89
2018-06-12T05:44:35.370Z,100312.88
2018-06-12T05:47:03.361Z,100318.73
2018-06-12T05:49:31.396Z,100313.52
2018-06-12T05:51:59.409Z,100320.62
2018-06-12T05:54:27.422Z,100321.67
2018-06-12T05:56:55.402Z,100328.69
2018-06-12T05:59:23.377Z,100319.88
2018-06-12T06:01:51.369Z,100328.83
2018-06-12T06:04:20.072Z,100321.69
2018-06-12T06:06:48.120Z,100325.24
2018-06-12T06:09:16.161Z,100329.88
2018-06-12T06:11:44.160Z,100327.02
2018-06-12T06:14:12.213Z,100328.25
2018-06-12T06:16:40.275Z,100329.63
2018-06-12T06:19:08.282Z,100330.33
2018-06-12T06:21:36.288Z,100332.58
2018-06-12T06:24:04.477Z,100338.60
2018-06-12T06:26:32.961Z,100341.36
2018-06-12T06:29:01.113Z,100336.09
2018-06-12T06:31:29.121Z,100339.72
2018-06-12T06:33:57.158Z,100342.37
2018-06-12T06:36:25.241Z,100337.57
2018-06-12T06:38:53.261Z,100333.55
2018-06-12T06:41:21.313Z,100342.63
2018-06-12T06:43:49.329Z,100343.44
2018-06-12T06:46:17.351Z,100341.08
2018-06-12T06:48:45.464Z,100344.09
2018-06-12T06:51:13.504Z,100345.06
2018-06-12T06:53:41.581Z,100352.19
2018-06-12T06:56:09.596Z,100357.87
2018-06-12T06:58:37.620Z,100362.00
2018-06-12T07:01:05.635Z,100364.31
2018-06-12T07:03:33.732Z,100356.53
2018-06-12T07:06:01.741Z,100355.34
2018-06-12T07:08:29.733Z,100361.00
2018-06-12T07:10:57.778Z,100356.75
2018-06-12T07:13:25.769Z,100356.33
2018-06-12T07:15:53.857Z,100361.20
2018-06-12T07:18:21.864Z,100362.63
2018-06-12T07:21:22.977Z,100360.02
2018-06-12T07:23:51.001Z,100354.63
2018-06-12T07:26:19.012Z,100364.11
2018-06-12T07:28:47.009Z,100360.14
2018-06-12T07:31:15.080Z,100362.16
2018-06-12T07:33:43.078Z,100362.72
2018-06-12T07:36:11.104Z,100365.13
2018-06-12T07:38:39.099Z,100362.67
2018-06-12T07:41:07.112Z,100368.44
2018-06-12T07:43:35.250Z,100366.47
2018-06-12T07:46:03.272Z,100366.92
2018-06-12T07:48:31.389Z,100362.98
2018-06-12T07:50:59.394Z,100367.61
2018-06-12T07:53:27.384Z,100366.16
2018-06-12T07:55:55.353Z,100366.33
2018-06-12T07:58:23.380Z,100371.84
2018-06-12T08:00:51.450Z,100371.22
2018-06-12T08:03:19.461Z,100367.61
2018-06-12T08:05:47.472Z,100370.11
2018-06-12T08:08:15.474Z,100364.31
2018-06-12T08:10:43.531Z,100376.28
2018-06-12T08:13:11.567Z,100368.64
2018-06-12T08:15:39.549Z,100372.31
2018-06-12T08:18:07.552Z,100375.70
2018-06-12T08:20:35.555Z,100368.69
2018-06-12T08:23:03.596Z,100372.25
2018-06-12T08:25:31.721Z,100366.52
2018-06-12T08:27:59.784Z,100362.91
2018-06-12T08:30:27.962Z,100366.52
2018-06-12T08:32:55.890Z,100370.00
2018-06-12T08:35:23.941Z,100369.49
2018-06-12T08:37:51.945Z,100375.72
2018-06-12T08:40:19.972Z,100374.78
2018-06-12T08:42:47.997Z,100367.94
2018-06-12T08:45:16.014Z,100371.42
2018-06-12T08:47:44.026Z,100368.80
2018-06-12T08:50:12.097Z,100364.97
2018-06-12T08:52:40.143Z,100361.36
2018-06-12T08:55:08.119Z,100361.77
2018-06-12T08:57:36.148Z,100364.17
2018-06-12T09:00:04.717Z,100363.97
2018-06-12T09:02:32.772Z,100364.34
2018-06-12T09:05:00.796Z,100361.81
2018-06-12T09:07:28.825Z,100365.47
2018-06-12T09:09:56.888Z,100362.63
2018-06-12T09:12:25.604Z,100356.33
2018-06-12T09:14:53.669Z,100362.42
2018-06-12T09:17:21.967Z,100360.77
2018-06-12T09:19:49.981Z,100366.45
2018-06-12T09:22:18.028Z,100371.94
2018-06-12T09:24:46.129Z,100364.84
2018-06-12T09:27:14.157Z,100369.53
2018-06-12T09:29:42.164Z,100365.00
2018-06-12T09:32:10.153Z,100371.36
2018-06-12T09:34:38.151Z,100368.06
2018-06-12T09:37:06.140Z,100372.79
2018-06-12T09:39:34.152Z,100366.42
2018-06-12T09:42:02.177Z,100367.77
2018-06-12T09:44:30.597Z,100375.17
2018-06-12T09:46:58.612Z,100372.62
2018-06-12T09:49:26.636Z,100368.44
2018-06-12T09:51:55.256Z,100370.83
2018-06-12T09:54:23.565Z,100366.64
2018-06-12T09:56:51.625Z,100375.69
2018-06-12T09:59:19.625Z,100379.52
2018-06-12T10:01:47.641Z,100379.69
2018-06-12T10:04:15.673Z,100378.12
2018-06-12T10:06:43.696Z,100382.98
2018-06-12T10:09:11.738Z,100380.14
2018-06-12T10:11:39.772Z,100388.71
2018-06-12T10:14:07.796Z,100388.55
2018-06-12T10:16:35.816Z,100386.15
2018-06-12T10:19:03.814Z,100384.80
2018-06-12T10:21:31.808Z,100386.63
2018-06-12T10:23:59.860Z,100384.56
2018-06-12T10:26:27.841Z,100385.70
2018-06-12T10:28:55.825Z,100392.31
2018-06-12T10:31:23.869Z,100388.19
2018-06-12T10:33:51.856Z,100388.95
2018-06-12T10:36:19.897Z,100380.65
2018-06-12T10:38:47.914Z,100382.47
2018-06-12T10:41:15.952Z,100386.91
2018-06-12T10:43:43.979Z,100385.05
2018-06-12T10:46:11.980Z,100384.20
2018-06-12T10:48:39.965Z,100387.42
2018-06-12T10:51:07.986Z,100388.09
2018-06-12T10:53:35.970Z,100388.59
2018-06-12T10:56:04.058Z,100393.63
2018-06-12T10:58:32.048Z,100396.16
2018-06-12T11:01:00.080Z,100399.59
2018-06-12T11:03:28.096Z,100397.75
2018-06-12T11:05:56.091Z,100397.17
2018-06-12T11:08:24.102Z,100401.20
2018-06-12T11:10:52.153Z,100402.73
2018-06-12T11:13:20.135Z,100403.91
2018-06-12T11:15:48.184Z,100404.91
2018-06-12T11:18:16.205Z,100405.94
2018-06-12T11:20:44.261Z,100403.28
2018-06-12T11:23:12.268Z,100399.96
2018-06-12T11:25:40.290Z,100398.84
2018-06-12T11:28:08.425Z,100407.06
2018-06-12T11:30:36.445Z,100405.91
2018-06-12T11:33:04.448Z,100395.34
2018-06-12T11:35:32.449Z,100399.84
2018-06-12T11:38:00.462Z,100400.30
2018-06-12T11:40:28.495Z,100394.84
2018-06-12T11:42:56.499Z,100402.95
2018-06-12T11:45:24.542Z,100404.01
2018-06-12T11:47:52.559Z,100396.96
2018-06-12T11:50:20.582Z,100396.98
2018-06-12T11:52:48.576Z,100395.80
2018-06-12T11:55:16.559Z,100401.52
2018-06-12T11:57:44.535Z,100398.50
2018-06-12T12:00:12.532Z,100401.16
2018-06-12T12:02:40.536Z,100388.55
2018-06-12T12:05:08.545Z,100397.92
2018-06-12T12:07:36.572Z,100393.72
2018-06-12T12:10:04.593Z,100390.91
2018-06-12T12:12:32.585Z,100383.91
2018-06-12T12:15:00.658Z,100386.58
2018-06-12T12:17:28.656Z,100379.47
2018-06-12T12:19:56.729Z,100388.05
2018-06-12T12:22:24.744Z,100385.48
2018-06-12T12:24:52.773Z,100393.50
2018-06-12T12:27:20.831Z,100392.39
2018-06-12T12:29:48.863Z,100388.80
2018-06-12T12:32:16.945Z,100393.71
2018-06-12T12:34:44.954Z,100386.84
2018-06-12T12:37:12.956Z,100386.56
2018-06-12T12:39:40.987Z,100387.42
2018-06-12T12:42:09.017Z,100387.25
2018-06-12T12:44:37.050Z,100390.05
2018-06-12T12:47:05.050Z,100392.73
2018-06-12T12:49:33.053Z,100390.52
2018-06-12T12:52:01.092Z,100393.95
2018-06-12T12:54:29.148Z,100395.00
2018-06-12T12:56:57.189Z,100396.08
2018-06-12T12:59:25.188Z,100395.30
2018-06-12T13:01:53.173Z,100384.09
2018-06-12T13:04:21.152Z,100392.52
2018-06-12T13:06:49.196Z,100393.63
2018-06-12T13:09:17.218Z,100391.84
2018-06-12T13:11:45.203Z,100390.88
2018-06-12T13:14:13.188Z,100387.81
2018-06-12T13:16:41.203Z,100385.03
2018-06-12T13:19:09.228Z,100395.37
2018-06-12T13:21:37.393Z,100391.05
2018-06-12T13:24:05.417Z,100383.11
2018-06-12T13:26:33.446Z,100391.03
2018-06-12T13:29:01.427Z,100391.80
2018-06-12T13:31:29.400Z,100388.35
2018-06-12T13:33:57.466Z,100394.48
2018-06-12T13:36:25.433Z,100392.39
2018-06-12T13:38:53.437Z,100393.97
2018-06-12T13:41:21.462Z,100399.33
2018-06-12T13:43:49.453Z,100391.77
2018-06-12T13:46:17.473Z,100395.27
2018-06-12T13:48:45.581Z,100393.90
2018-06-12T13:51:13.596Z,100378.09
2018-06-12T13:53:41.588Z,100376.11
2018-06-12T13:56:09.657Z,100376.34
2018-06-12T13:58:37.648Z,100373.53
2018-06-12T14:01:05.716Z,100383.95
2018-06-12T14:03:33.787Z,100381.84
2018-06-12T14:06:01.801Z,100380.79
2018-06-12T14:08:29.788Z,100378.11
2018-06-12T14:10:57.821Z,100379.31
2018-06-12T14:13:25.881Z,100381.08
2018-06-12T14:15:53.837Z,100375.41
2018-06-12T14:18:21.833Z,100369.14
2018-06-12T14:20:49.894Z,100371.02
2018-06-12T14:23:17.928Z,100370.59
2018-06-12T14:25:45.932Z,100370.06
2018-06-12T14:28:14.017Z,100368.55
2018-06-12T14:30:41.978Z,100372.30
2018-06-12T14:33:09.963Z,100363.44
2018-06-12T14:35:37.960Z,100364.06
2018-06-12T14:38:06.005Z,100361.18
2018-06-12T14:40:34.046Z,100361.91
2018-06-12T14:43:02.041Z,100357.98
2018-06-12T14:45:30.053Z,100356.78
2018-06-12T14:47:58.124Z,100363.93
2018-06-12T14:50:26.174Z,100363.59
2018-06-12T14:52:54.149Z,100358.91
2018-06-12T14:55:22.194Z,100364.45
2018-06-12T14:57:50.208Z,100368.80
2018-06-12T15:00:18.345Z,100364.09
2018-06-12T15:02:46.318Z,100360.84
2018-06-12T15:05:14.387Z,100358.80
2018-06-12T15:07:42.339Z,100357.38
2018-06-12T15:10:10.310Z,100358.20
2018-06-12T15:12:38.357Z,100359.74
2018-06-12T15:15:06.308Z,100358.89
2018-06-12T15:17:34.338Z,100348.61
2018-06-12T15:20:02.368Z,100349.91
2018-06-12T15:22:30.357Z,100350.06
2018-06-12T15:24:58.373Z,100358.28
2018-06-12T15:27:26.416Z,100351.56
2018-06-12T15:29:54.425Z,100345.03
2018-06-12T15:32:22.418Z,100348.78
2018-06-12T15:34:50.433Z,100353.32
2018-06-12T15:37:18.469Z,100343.73
2018-06-12T15:39:46.489Z,100353.99
2018-06-12T15:42:14.484Z,100349.95
2018-06-12T15:44:42.505Z,100346.14
2018-06-12T15:47:10.528Z,100343.61
2018-06-12T15:49:38.556Z,100340.25
2018-06-12T15:52:06.702Z,100342.63
2018-06-12T15:54:34.709Z,100345.83
2018-06-12T15:57:02.734Z,100350.50
2018-06-12T15:59:30.724Z,100351.83
2018-06-12T16:01:58.756Z,100348.14
2018-06-12T16:04:26.829Z,100349.31
2018-06-12T16:06:54.880Z,100351.00
2018-06-12T16:09:22.917Z,100338.61
2018-06-12T16:11:50.922Z,100340.60
2018-06-12T16:14:18.925Z,100340.77
2018-06-12T16:16:46.985Z,100342.09
2018-06-12T16:19:15.029Z,100343.27
2018-06-12T16:21:42.972Z,100340.08
2018-06-12T16:24:10.977Z,100348.95
2018-06-12T16:26:38.978Z,100345.91
2018-06-12T16:29:07.132Z,100344.56
2018-06-12T16:31:35.108Z,100346.59
2018-06-12T16:34:03.110Z,100340.53
2018-06-12T16:36:31.126Z,100336.63
2018-06-12T16:38:59.177Z,100342.86
2018-06-12T16:41:27.268Z,100339.16
2018-06-12T16:43:55.249Z,100348.34
2018-06-12T16:46:23.276Z,100342.01
2018-06-12T16:48:51.259Z,100335.28
2018-06-12T16:51:19.245Z,100335.19
2018-06-12T16:53:47.246Z,100337.57
2018-06-12T16:56:15.307Z,100332.27
2018-06-12T16:58:43.327Z,100336.52
2018-06-12T17:01:11.434Z,100333.44
2018-06-12T17:03:39.540Z,100339.70
2018-06-12T17:06:07.561Z,100349.58
2018-06-12T17:08:35.668Z,100339.20
2018-06-12T17:11:03.720Z,100333.58
2018-06-12T17:13:31.781Z,100335.28
2018-06-12T17:15:59.796Z,100332.21
2018-06-12T17:18:27.828Z,100336.41
2018-06-12T17:20:55.838Z,100331.92
2018-06-12T17:23:23.853Z,100335.81
2018-06-12T17:25:51.877Z,100330.58
2018-06-12T17:28:19.915Z,100329.95
2018-06-12T17:30:47.907Z,100332.47
2018-06-12T17:33:15.960Z,100338.15
2018-06-12T17:35:43.977Z,100342.78
2018-06-12T17:38:11.992Z,100339.78
2018-06-12T17:40:40.021Z,100338.87
2018-06-12T17:43:08.060Z,100337.77
2018-06-12T17:45:36.092Z,100331.81
2018-06-12T17:48:04.092Z,100337.44
2018-06-12T17:50:32.081Z,100330.36
2018-06-12T17:53:00.126Z,100328.23
2018-06-12T17:55:28.167Z,100326.30
2018-06-12T17:57:56.156Z,100328.37
2018-06-12T18:00:24.153Z,100327.77
2018-06-12T18:02:52.205Z,100331.73
2018-06-12T18:05:20.214Z,100328.80
2018-06-12T18:07:48.535Z,100334.25
2018-06-12T18:10:16.577Z,100340.86
2018-06-12T18:12:44.645Z,100334.44
2018-06-12T18:15:12.707Z,100338.22
2018-06-12T18:17:40.744Z,100337.47
2018-06-12T18:20:08.756Z,100338.95
2018-06-12T18:22:36.785Z,100337.07
2018-06-12T18:25:04.797Z,100336.56
2018-06-12T18:27:32.824Z,100335.27
2018-06-12T18:30:00.841Z,100331.84
2018-06-12T18:32:28.840Z,100327.98
2018-06-12T18:34:56.869Z,100328.30
2018-06-12T18:37:25.056Z,100342.20
2018-06-12T18:39:53.026Z,100348.30
2018-06-12T18:42:21.033Z,100349.90
2018-06-12T18:44:49.055Z,100344.34
2018-06-12T18:47:17.032Z,100348.13
2018-06-12T18:49:45.052Z,100352.50
2018-06-12T18:52:13.044Z,100354.53
2018-06-12T18:54:41.073Z,100342.83
2018-06-12T18:57:09.117Z,100349.45
2018-06-12T18:59:37.181Z,100345.05
2018-06-12T19:02:05.220Z,100343.59
2018-06-12T19:04:33.234Z,100349.91
2018-06-12T19:07:01.316Z,100350.66
2018-06-12T19:09:29.321Z,100354.78
2018-06-12T19:11:57.341Z,100357.80
2018-06-12T19:14:25.352Z,100361.70
2018-06-12T19:16:53.377Z,100358.48
2018-06-12T19:19:21.479Z,100358.78
2018-06-12T19:21:49.535Z,100359.31
2018-06-12T19:24:17.572Z,100357.80
2018-06-12T19:26:45.639Z,100359.28
2018-06-12T19:29:13.684Z,100357.77
2018-06-12T19:31:41.796Z,100358.98
2018-06-12T19:34:09.829Z,100360.83
2018-06-12T19:36:37.876Z,100362.41
2018-06-12T19:39:07.172Z,100367.94
2018-06-12T19:41:35.363Z,100367.92
2018-06-12T19:44:03.370Z,100364.66
2018-06-12T19:46:31.378Z,100368.72
2018-06-12T19:48:59.380Z,100374.44
2018-06-12T19:51:27.433Z,100379.48
2018-06-12T19:53:55.542Z,100378.31
2018-06-12T19:56:23.536Z,100379.31
2018-06-12T19:58:51.557Z,100384.71
2018-06-12T20:01:19.555Z,100386.98
2018-06-12T20:03:47.619Z,100380.20
2018-06-12T20:06:15.669Z,100382.09
2018-06-12T20:08:43.728Z,100389.03
2018-06-12T20:11:12.005Z,100385.53
2018-06-12T20:13:40.007Z,100392.25
2018-06-12T20:16:08.041Z,100388.94
2018-06-12T20:18:36.047Z,100388.63
2018-06-12T20:21:04.065Z,100395.62
2018-06-12T20:23:32.066Z,100391.59
2018-06-12T20:26:00.080Z,100391.88
2018-06-12T20:28:28.068Z,100397.57
2018-06-12T20:30:56.072Z,100406.84
2018-06-12T20:33:24.093Z,100401.71
2018-06-12T20:35:52.093Z,100409.87
2018-06-12T20:38:20.092Z,100405.50
2018-06-12T20:40:48.098Z,100395.30
2018-06-12T20:43:16.108Z,100392.01
2018-06-12T20:45:44.138Z,100388.71
2018-06-12T20:48:12.114Z,100392.59
2018-06-12T20:50:40.124Z,100396.09
2018-06-12T20:53:08.137Z,100399.70
2018-06-12T20:55:36.173Z,100402.28
2018-06-12T20:58:04.189Z,100405.36
2018-06-12T21:00:32.184Z,100411.73
2018-06-12T21:03:00.208Z,100411.47
2018-06-12T21:05:28.220Z,100409.09
2018-06-12T21:07:56.324Z,100414.42
2018-06-12T21:10:24.356Z,100420.05
2018-06-12T21:12:52.410Z,100412.46
2018-06-12T21:15:20.382Z,100417.80
2018-06-12T21:17:49.421Z,100415.33
2018-06-12T21:20:17.474Z,100413.90
2018-06-12T21:22:45.468Z,100415.02
2018-06-12T21:25:13.533Z,100411.55
2018-06-12T21:27:41.551Z,100412.73
2018-06-12T21:30:09.572Z,100416.69
2018-06-12T21:32:37.607Z,100419.42
2018-06-12T21:35:05.705Z,100412.66
2018-06-12T21:37:33.719Z,100416.51
2018-06-12T21:40:01.719Z,100413.50
2018-06-12T21:42:29.728Z,100415.96
2018-06-12T21:44:57.738Z,100422.38
2018-06-12T21:47:25.748Z,100420.39
2018-06-12T21:49:53.744Z,100415.56
2018-06-12T21:52:21.752Z,100411.56
2018-06-12T21:54:49.754Z,100406.66
2018-06-12T21:57:17.741Z,100407.08
2018-06-12T21:59:45.756Z,100407.92
2018-06-12T22:02:13.728Z,100401.67
2018-06-12T22:04:41.772Z,100401.14
2018-06-12T22:07:09.774Z,100399.37
2018-06-12T22:09:37.796Z,100408.55
2018-06-12T22:12:05.845Z,100403.42
2018-06-12T22:14:33.825Z,100406.09
2018-06-12T22:17:01.834Z,100402.90
2018-06-12T22:19:29.804Z,100405.19
2018-06-12T22:21:57.889Z,100405.09
2018-06-12T22:24:26.965Z,100403.78
2018-06-12T22:26:54.996Z,100402.95
2018-06-12T22:29:22.992Z,100408.62
2018-06-12T22:31:51.064Z,100408.84
2018-06-12T22:34:19.077Z,100410.59
2018-06-12T22:36:47.144Z,100415.66
2018-06-12T22:39:15.166Z,100422.83
2018-06-12T22:41:44.080Z,100417.86
2018-06-12T22:44:12.088Z,100416.01
2018-06-12T22:46:40.113Z,100415.27
2018-06-12T22:49:08.111Z,100418.30
2018-06-12T22:51:36.136Z,100417.37
2018-06-12T22:54:04.147Z,100418.30
2018-06-12T22:56:32.194Z,100417.43
2018-06-12T22:59:00.165Z,100412.28
2018-06-12T23:01:28.186Z,100416.33
2018-06-12T23:03:56.201Z,100416.13
2018-06-12T23:06:24.218Z,100418.61
2018-06-12T23:08:52.252Z,100418.02
2018-06-12T23:11:20.265Z,100416.48
2018-06-12T23:13:48.273Z,100421.77
2018-06-12T23:16:16.264Z,100418.52
2018-06-12T23:18:45.124Z,100415.42
2018-06-12T23:21:24.564Z,100423.84
2018-06-12T23:23:52.546Z,100426.63
2018-06-12T23:26:20.558Z,100426.08
2018-06-12T23:28:49.395Z,100435.59
2018-06-12T23:31:17.455Z,100430.02
2018-06-12T23:33:48.556Z,100436.22
2018-06-12T23:36:16.561Z,100429.20
2018-06-12T23:38:44.571Z,100426.47
2018-06-12T23:41:12.701Z,100430.03
2018-06-12T23:43:40.732Z,100425.80
2018-06-12T23:46:08.733Z,100428.58
2018-06-12T23:48:36.725Z,100425.86
2018-06-12T23:51:05.532Z,100425.18
2018-06-12T23:53:33.524Z,100421.73
2018-06-12T23:56:01.666Z,100422.51
2018-06-12T23:58:29.740Z,100424.33
